createdAt,value
2023-04-12T00:02:22.280Z,6.13
2023-04-12T00:04:55.687Z,6.15
2023-04-12T00:07:27.506Z,6.16
2023-04-12T00:09:57.780Z,6.16
2023-04-12T00:12:31.146Z,6.14
2023-04-12T00:15:01.674Z,6.12
2023-04-12T00:17:34.597Z,6.09
2023-04-12T00:20:06.282Z,6.04
2023-04-12T00:22:37.228Z,6.04
2023-04-12T00:25:08.177Z,6.06
2023-04-12T00:27:39.199Z,6.04
2023-04-12T00:30:12.182Z,6.07
2023-04-12T00:32:45.074Z,6.05
2023-04-12T00:35:15.357Z,6.06
2023-04-12T00:37:45.583Z,6.05
2023-04-12T00:40:16.387Z,6.03
2023-04-12T00:42:47.103Z,6.02
2023-04-12T00:45:17.733Z,6.01
2023-04-12T00:47:50.795Z,5.98
2023-04-12T00:50:21.476Z,5.95
2023-04-12T00:52:52.250Z,5.96
2023-04-12T00:55:22.579Z,5.89
2023-04-12T00:57:53.105Z,5.80
2023-04-12T01:00:23.843Z,5.77
2023-04-12T01:02:57.321Z,5.73
2023-04-12T01:05:27.721Z,5.76
2023-04-12T01:08:07.875Z,5.78
2023-04-12T01:10:49.768Z,5.83
2023-04-12T01:13:30.242Z,5.83
2023-04-12T01:16:07.814Z,5.82
2023-04-12T01:18:46.115Z,5.86
2023-04-12T01:21:19.148Z,5.90
2023-04-12T01:24:04.051Z,5.94
2023-04-12T01:26:38.386Z,5.95
2023-04-12T01:29:15.887Z,5.99
2023-04-12T01:31:58.276Z,6.01
2023-04-12T01:34:30.502Z,6.03
2023-04-12T01:37:02.076Z,6.05
2023-04-12T01:39:33.067Z,6.07
2023-04-12T01:42:03.362Z,6.02
2023-04-12T01:44:36.320Z,5.99
2023-04-12T01:47:06.567Z,6.01
2023-04-12T01:49:47.046Z,6.03
2023-04-12T01:52:23.492Z,5.99
2023-04-12T01:54:56.872Z,5.98
2023-04-12T01:57:29.030Z,5.99
2023-04-12T02:00:03.520Z,6.06
2023-04-12T02:02:45.200Z,6.06
2023-04-12T02:05:15.880Z,6.07
2023-04-12T02:07:46.831Z,6.11
2023-04-12T02:10:18.631Z,6.18
2023-04-12T02:12:50.117Z,6.19
2023-04-12T02:15:23.729Z,6.23
2023-04-12T02:17:54.758Z,6.29
2023-04-12T02:20:27.323Z,6.29
2023-04-12T02:22:57.801Z,6.32
2023-04-12T02:25:28.024Z,6.26
2023-04-12T02:27:58.396Z,6.28
2023-04-12T02:30:31.338Z,6.22
2023-04-12T02:33:02.704Z,6.20
2023-04-12T02:35:37.824Z,6.17
2023-04-12T02:38:15.073Z,6.10
2023-04-12T02:40:45.606Z,6.13
2023-04-12T02:43:19.041Z,6.15
2023-04-12T02:45:56.280Z,6.18
2023-04-12T02:48:26.857Z,6.15
2023-04-12T02:50:57.594Z,6.14
2023-04-12T02:53:29.831Z,6.16
2023-04-12T02:56:19.381Z,6.15
2023-04-12T02:58:53.756Z,6.16
2023-04-12T03:01:46.738Z,6.19
2023-04-12T03:04:30.825Z,6.18
2023-04-12T03:07:03.856Z,6.18
2023-04-12T03:09:44.775Z,6.20
2023-04-12T03:12:16.947Z,6.15
2023-04-12T03:14:59.885Z,6.18
2023-04-12T03:17:32.918Z,6.21
2023-04-12T03:20:10.307Z,6.10
2023-04-12T03:22:44.068Z,6.02
2023-04-12T03:25:14.472Z,5.94
2023-04-12T03:27:52.960Z,5.84
2023-04-12T03:30:26.408Z,5.81
2023-04-12T03:33:01.997Z,5.80
2023-04-12T03:35:32.601Z,5.75
2023-04-12T03:38:03.511Z,5.81
2023-04-12T03:40:34.169Z,5.82
2023-04-12T03:43:05.002Z,5.76
2023-04-12T03:45:35.279Z,5.78
2023-04-12T03:48:11.242Z,5.77
2023-04-12T03:50:48.607Z,5.84
2023-04-12T03:53:24.432Z,5.91
2023-04-12T03:55:55.201Z,5.95
2023-04-12T03:58:26.243Z,5.93
2023-04-12T04:00:56.850Z,5.90
2023-04-12T04:03:30.343Z,5.91
2023-04-12T04:06:12.567Z,5.92
2023-04-12T04:08:42.904Z,5.88
2023-04-12T04:11:13.835Z,5.98
2023-04-12T04:13:47.997Z,6.06
2023-04-12T04:16:22.810Z,6.09
2023-04-12T04:18:57.010Z,6.07
2023-04-12T04:21:30.696Z,6.06
2023-04-12T04:24:02.724Z,6.12
2023-04-12T04:26:38.640Z,6.20
2023-04-12T04:29:35.010Z,6.24
2023-04-12T04:32:07.898Z,6.32
2023-04-12T04:34:41.079Z,6.36
2023-04-12T04:37:15.501Z,6.41
2023-04-12T04:39:48.344Z,6.46
2023-04-12T04:42:18.541Z,6.58
2023-04-12T04:45:05.689Z,6.68
2023-04-12T04:47:41.381Z,6.73
2023-04-12T04:50:14.613Z,6.78
2023-04-12T04:52:44.858Z,6.83
2023-04-12T04:55:17.783Z,6.90
2023-04-12T04:57:49.927Z,7.03
2023-04-12T05:00:22.657Z,7.13
2023-04-12T05:02:58.311Z,7.24
2023-04-12T05:05:35.197Z,7.31
2023-04-12T05:08:11.207Z,7.45
2023-04-12T05:10:42.677Z,7.53
2023-04-12T05:13:12.928Z,7.56
2023-04-12T05:15:43.884Z,7.64
2023-04-12T05:18:14.229Z,7.75
2023-04-12T05:20:48.560Z,7.79
2023-04-12T05:23:18.893Z,7.90
2023-04-12T05:25:50.290Z,8.10
2023-04-12T05:28:22.155Z,8.25
2023-04-12T05:30:52.853Z,8.38
2023-04-12T05:33:27.687Z,8.56
2023-04-12T05:36:00.772Z,8.57
2023-04-12T05:38:31.961Z,8.76
2023-04-12T05:41:07.679Z,8.89
2023-04-12T05:43:38.045Z,8.95
2023-04-12T05:46:11.612Z,8.85
2023-04-12T05:48:41.923Z,8.92
2023-04-12T05:51:14.833Z,9.05
2023-04-12T05:53:45.251Z,9.14
2023-04-12T05:56:17.078Z,9.15
2023-04-12T05:58:48.463Z,9.26
2023-04-12T06:01:19.900Z,9.31
2023-04-12T06:03:51.574Z,9.37
2023-04-12T06:06:24.628Z,9.38
2023-04-12T06:08:55.118Z,9.48
2023-04-12T06:11:25.480Z,9.53
2023-04-12T06:13:56.761Z,9.72
2023-04-12T06:16:27.140Z,9.84
2023-04-12T06:18:57.787Z,9.99
2023-04-12T06:21:32.533Z,10.07
2023-04-12T06:24:02.815Z,10.22
2023-04-12T06:26:39.907Z,10.22
2023-04-12T06:29:10.915Z,10.27
2023-04-12T06:31:41.558Z,10.24
2023-04-12T06:34:11.948Z,10.44
2023-04-12T06:36:46.600Z,10.67
2023-04-12T06:39:17.138Z,10.93
2023-04-12T06:41:47.756Z,11.09
2023-04-12T06:44:22.767Z,11.29
2023-04-12T06:46:53.003Z,11.22
2023-04-12T06:49:23.196Z,11.25
2023-04-12T06:51:56.201Z,11.16
2023-04-12T06:54:26.546Z,11.11
2023-04-12T06:56:57.568Z,11.20
2023-04-12T06:59:27.954Z,11.20
2023-04-12T07:01:58.147Z,11.29
2023-04-12T07:04:28.396Z,11.52
2023-04-12T07:07:01.322Z,11.89
2023-04-12T07:09:34.021Z,12.30
2023-04-12T07:12:04.633Z,12.59
2023-04-12T07:14:34.881Z,12.82
2023-04-12T07:17:05.389Z,12.80
2023-04-12T07:19:35.633Z,13.15
2023-04-12T07:22:08.463Z,13.68
2023-04-12T07:24:38.693Z,13.70
2023-04-12T07:27:08.999Z,13.98
2023-04-12T07:29:39.238Z,13.92
2023-04-12T07:32:12.823Z,14.19
2023-04-12T07:34:43.079Z,14.55
2023-04-12T07:37:18.084Z,14.71
2023-04-12T07:39:48.271Z,14.54
2023-04-12T07:42:18.612Z,14.73
2023-04-12T07:44:48.769Z,15.10
2023-04-12T07:47:18.994Z,14.95
2023-04-12T07:49:49.206Z,15.13
2023-04-12T07:52:22.087Z,15.34
2023-04-12T07:54:52.312Z,15.53
2023-04-12T07:57:23.675Z,16.20
2023-04-12T07:59:53.985Z,16.70
2023-04-12T08:02:27.785Z,16.85
2023-04-12T08:04:58.144Z,16.73
2023-04-12T08:07:31.073Z,17.39
2023-04-12T08:10:01.811Z,17.52
2023-04-12T08:12:32.016Z,18.48
2023-04-12T08:15:02.241Z,18.98
2023-04-12T08:17:32.573Z,19.66
2023-04-12T08:20:03.987Z,20.08
2023-04-12T08:22:36.955Z,20.91
2023-04-12T08:25:07.900Z,21.30
2023-04-12T08:27:38.246Z,21.81
2023-04-12T08:30:10.000Z,21.64
2023-04-12T08:32:40.513Z,21.57
2023-04-12T08:35:12.235Z,21.51
2023-04-12T08:37:45.070Z,21.18
2023-04-12T08:40:15.370Z,21.46
2023-04-12T08:42:46.829Z,21.00
2023-04-12T08:45:17.525Z,20.59
2023-04-12T08:47:48.249Z,21.11
2023-04-12T08:50:18.611Z,21.41
2023-04-12T08:52:52.527Z,21.29
2023-04-12T08:55:22.849Z,21.50
2023-04-12T08:57:55.473Z,21.16
2023-04-12T09:00:26.053Z,20.59
2023-04-12T09:02:56.653Z,20.80
2023-04-12T09:05:32.035Z,20.59
2023-04-12T09:08:05.435Z,20.78
2023-04-12T09:10:37.258Z,20.39
2023-04-12T09:13:07.839Z,20.15
2023-04-12T09:15:38.602Z,19.94
2023-04-12T09:18:11.595Z,19.53
2023-04-12T09:20:42.399Z,19.50
2023-04-12T09:23:25.620Z,19.43
2023-04-12T09:25:55.876Z,19.09
2023-04-12T09:28:28.195Z,19.19
2023-04-12T09:30:59.459Z,19.24
2023-04-12T09:33:37.368Z,19.86
2023-04-12T09:36:13.817Z,20.37
2023-04-12T09:39:02.243Z,20.18
2023-04-12T09:41:33.223Z,20.22
2023-04-12T09:44:03.543Z,19.54
2023-04-12T09:46:34.228Z,19.35
2023-04-12T09:49:05.880Z,20.28
2023-04-12T09:51:37.600Z,20.90
2023-04-12T09:54:13.103Z,21.14
2023-04-12T09:56:44.593Z,20.58
2023-04-12T09:59:16.932Z,21.16
2023-04-12T10:01:47.551Z,22.37
2023-04-12T10:04:17.943Z,22.24
2023-04-12T10:06:48.540Z,21.61
2023-04-12T10:09:21.843Z,21.25
2023-04-12T10:11:52.550Z,21.09
2023-04-12T10:14:24.500Z,21.21
2023-04-12T10:16:56.424Z,20.59
2023-04-12T10:19:27.293Z,20.60
2023-04-12T10:21:57.643Z,20.24
2023-04-12T10:24:32.311Z,20.09
2023-04-12T10:27:04.760Z,19.93
2023-04-12T10:29:37.445Z,19.50
2023-04-12T10:32:24.477Z,19.09
2023-04-12T10:35:03.126Z,18.89
2023-04-12T10:38:01.104Z,19.32
2023-04-12T10:40:35.918Z,19.29
2023-04-12T10:43:30.617Z,19.46
2023-04-12T10:46:04.635Z,19.63
2023-04-12T10:48:35.698Z,19.87
2023-04-12T10:51:23.646Z,19.99
2023-04-12T10:53:54.498Z,20.04
2023-04-12T10:56:42.615Z,20.13
2023-04-12T10:59:18.543Z,19.52
2023-04-12T11:02:14.596Z,19.49
2023-04-12T11:05:09.155Z,18.79
2023-04-12T11:08:06.926Z,18.48
2023-04-12T11:10:44.817Z,18.60
2023-04-12T11:13:22.692Z,18.62
2023-04-12T11:15:57.115Z,18.81
2023-04-12T11:18:29.390Z,19.32
2023-04-12T11:21:00.716Z,18.89
2023-04-12T11:23:31.670Z,18.18
2023-04-12T11:26:02.355Z,18.39
2023-04-12T11:28:35.632Z,18.63
2023-04-12T11:31:06.657Z,17.69
2023-04-12T11:33:38.003Z,17.51
2023-04-12T11:36:09.409Z,17.56
2023-04-12T11:38:40.974Z,17.58
2023-04-12T11:41:12.369Z,18.69
2023-04-12T11:43:46.187Z,19.54
2023-04-12T11:46:18.554Z,19.35
2023-04-12T11:48:49.476Z,18.32
2023-04-12T11:51:25.339Z,18.40
2023-04-12T11:53:57.341Z,18.24
2023-04-12T11:56:27.848Z,18.17
2023-04-12T11:59:00.718Z,19.00
2023-04-12T12:01:32.111Z,19.53
2023-04-12T12:04:03.185Z,19.39
2023-04-12T12:06:34.730Z,19.37
2023-04-12T12:09:05.911Z,19.22
2023-04-12T12:11:36.162Z,18.88
2023-04-12T12:14:09.481Z,18.54
2023-04-12T12:16:41.666Z,18.07
2023-04-12T12:19:11.938Z,17.34
2023-04-12T12:21:42.204Z,17.36
2023-04-12T12:24:16.878Z,17.65
2023-04-12T12:26:47.248Z,17.20
2023-04-12T12:29:24.606Z,16.67
2023-04-12T12:31:54.949Z,16.08
2023-04-12T12:34:26.920Z,15.69
2023-04-12T12:36:58.723Z,15.58
2023-04-12T12:39:29.056Z,15.20
2023-04-12T12:42:00.454Z,14.88
2023-04-12T12:44:35.499Z,14.48
2023-04-12T12:47:14.034Z,14.25
2023-04-12T12:49:45.080Z,13.98
2023-04-12T12:52:17.791Z,13.79
2023-04-12T12:54:48.242Z,13.63
2023-04-12T12:57:18.526Z,13.48
2023-04-12T12:59:51.376Z,13.43
2023-04-12T13:02:21.765Z,13.27
2023-04-12T13:04:52.384Z,13.38
2023-04-12T13:07:22.654Z,13.45
2023-04-12T13:09:53.188Z,13.37
2023-04-12T13:12:23.458Z,13.31
2023-04-12T13:15:12.952Z,13.34
2023-04-12T13:17:46.804Z,13.13
2023-04-12T13:20:17.072Z,13.02
2023-04-12T13:22:47.270Z,13.04
2023-04-12T13:25:17.568Z,13.32
2023-04-12T13:27:47.721Z,13.30
2023-04-12T13:30:21.447Z,13.31
2023-04-12T13:32:51.711Z,13.59
2023-04-12T13:35:22.066Z,13.64
2023-04-12T13:37:52.208Z,13.59
2023-04-12T13:40:22.612Z,13.63
2023-04-12T13:42:52.790Z,13.41
2023-04-12T13:45:26.342Z,13.38
2023-04-12T13:47:56.702Z,13.18
2023-04-12T13:50:27.509Z,13.08
2023-04-12T13:52:57.698Z,13.23
2023-04-12T13:55:27.915Z,13.27
2023-04-12T13:57:58.187Z,13.21
2023-04-12T14:00:31.188Z,13.24
2023-04-12T14:03:01.630Z,13.11
2023-04-12T14:05:32.050Z,13.02
2023-04-12T14:08:02.328Z,12.86
2023-04-12T14:10:32.598Z,12.95
2023-04-12T14:13:02.841Z,12.80
2023-04-12T14:15:35.727Z,12.84
2023-04-12T14:18:06.099Z,12.97
2023-04-12T14:20:36.346Z,12.99
2023-04-12T14:23:08.017Z,12.96
2023-04-12T14:25:38.689Z,12.88
2023-04-12T14:28:09.011Z,12.73
2023-04-12T14:30:42.379Z,12.51
2023-04-12T14:33:12.752Z,12.48
2023-04-12T14:35:43.125Z,12.27
2023-04-12T14:38:13.425Z,12.27
2023-04-12T14:40:43.607Z,12.23
2023-04-12T14:43:13.819Z,12.37
2023-04-12T14:45:46.747Z,12.40
2023-04-12T14:48:16.997Z,12.34
2023-04-12T14:50:47.203Z,12.32
2023-04-12T14:53:19.857Z,12.30
2023-04-12T14:55:50.484Z,12.35
2023-04-12T14:58:20.994Z,12.30
2023-04-12T15:00:54.368Z,12.36
2023-04-12T15:03:26.795Z,12.43
2023-04-12T15:05:58.393Z,12.50
2023-04-12T15:08:29.234Z,12.61
2023-04-12T15:10:59.471Z,12.61
2023-04-12T15:13:33.859Z,12.70
2023-04-12T15:16:09.058Z,12.67
2023-04-12T15:18:42.080Z,12.50
2023-04-12T15:21:13.066Z,12.45
2023-04-12T15:23:45.185Z,12.42
2023-04-12T15:26:16.116Z,12.29
2023-04-12T15:28:46.562Z,12.26
2023-04-12T15:31:22.140Z,12.24
2023-04-12T15:33:52.578Z,12.16
2023-04-12T15:36:22.943Z,12.25
2023-04-12T15:38:54.619Z,12.31
2023-04-12T15:41:24.799Z,12.49
2023-04-12T15:43:54.980Z,12.55
2023-04-12T15:46:27.888Z,12.66
2023-04-12T15:48:58.123Z,12.48
2023-04-12T15:51:28.386Z,12.48
2023-04-12T15:53:59.075Z,12.49
2023-04-12T15:56:30.021Z,12.53
2023-04-12T15:59:01.350Z,12.43
2023-04-12T16:01:35.967Z,12.42
2023-04-12T16:04:07.375Z,12.42
2023-04-12T16:06:38.483Z,12.53
2023-04-12T16:09:09.132Z,12.41
2023-04-12T16:11:39.348Z,12.43
2023-04-12T16:14:10.324Z,12.57
2023-04-12T16:16:43.432Z,12.72
2023-04-12T16:19:14.117Z,12.76
2023-04-12T16:21:45.088Z,12.78
2023-04-12T16:24:15.365Z,12.69
2023-04-12T16:26:46.392Z,12.67
2023-04-12T16:29:16.938Z,12.77
2023-04-12T16:31:50.016Z,12.70
2023-04-12T16:34:22.174Z,12.67
2023-04-12T16:36:52.775Z,12.72
2023-04-12T16:39:23.310Z,12.76
2023-04-12T16:41:53.494Z,12.91
2023-04-12T16:44:23.709Z,12.91
2023-04-12T16:46:56.939Z,12.93
2023-04-12T16:49:27.685Z,12.89
2023-04-12T16:51:59.453Z,12.83
2023-04-12T16:54:29.868Z,12.82
2023-04-12T16:57:00.143Z,12.84
2023-04-12T16:59:30.505Z,12.71
2023-04-12T17:02:03.639Z,12.70
2023-04-12T17:04:34.187Z,12.54
2023-04-12T17:07:05.427Z,12.50
2023-04-12T17:09:35.661Z,12.58
2023-04-12T17:12:05.983Z,12.42
2023-04-12T17:14:36.500Z,12.41
2023-04-12T17:17:09.413Z,12.43
2023-04-12T17:19:39.625Z,12.44
2023-04-12T17:22:09.990Z,12.44
2023-04-12T17:24:40.207Z,12.41
2023-04-12T17:27:10.381Z,12.50
2023-04-12T17:29:40.610Z,12.50
2023-04-12T17:32:13.735Z,12.53
2023-04-12T17:34:45.089Z,12.61
2023-04-12T17:37:15.280Z,12.53
2023-04-12T17:39:45.685Z,12.48
2023-04-12T17:42:15.890Z,12.46
2023-04-12T17:44:46.196Z,12.49
2023-04-12T17:47:19.251Z,12.45
2023-04-12T17:49:49.514Z,12.40
2023-04-12T17:52:20.331Z,12.25
2023-04-12T17:54:51.564Z,12.28
2023-04-12T17:57:22.027Z,12.30
2023-04-12T17:59:52.251Z,12.21
2023-04-12T18:02:25.409Z,12.11
2023-04-12T18:04:55.942Z,11.99
2023-04-12T18:07:27.408Z,11.96
2023-04-12T18:09:57.804Z,11.90
2023-04-12T18:12:28.169Z,11.93
2023-04-12T18:14:59.053Z,11.95
2023-04-12T18:17:32.143Z,11.91
2023-04-12T18:20:03.158Z,11.90
2023-04-12T18:22:33.832Z,11.83
2023-04-12T18:25:04.161Z,11.77
2023-04-12T18:27:35.123Z,11.82
2023-04-12T18:30:08.580Z,11.85
2023-04-12T18:32:41.485Z,11.85
2023-04-12T18:35:12.199Z,11.88
2023-04-12T18:37:43.828Z,11.92
2023-04-12T18:40:16.227Z,11.79
2023-04-12T18:42:46.777Z,11.77
2023-04-12T18:45:17.056Z,11.84
2023-04-12T18:47:50.007Z,11.86
2023-04-12T18:50:20.314Z,11.85
2023-04-12T18:52:50.511Z,11.87
2023-04-12T18:55:21.317Z,11.84
2023-04-12T18:57:51.559Z,11.86
2023-04-12T19:00:22.718Z,11.98
2023-04-12T19:02:55.755Z,11.99
2023-04-12T19:05:26.582Z,11.95
2023-04-12T19:07:56.971Z,11.97
2023-04-12T19:10:30.711Z,12.07
2023-04-12T19:13:02.597Z,12.08
2023-04-12T19:15:34.077Z,12.04
2023-04-12T19:18:07.460Z,12.06
2023-04-12T19:20:37.650Z,12.01
2023-04-12T19:23:07.937Z,11.97
2023-04-12T19:25:38.207Z,12.00
2023-04-12T19:28:08.648Z,11.98
2023-04-12T19:30:38.830Z,12.00
2023-04-12T19:33:11.839Z,11.98
2023-04-12T19:35:42.398Z,12.12
2023-04-12T19:38:12.696Z,12.15
2023-04-12T19:40:42.951Z,12.23
2023-04-12T19:43:14.447Z,12.24
2023-04-12T19:45:44.913Z,12.15
2023-04-12T19:48:17.880Z,12.19
2023-04-12T19:50:49.498Z,12.19
2023-04-12T19:53:21.741Z,12.24
2023-04-12T19:55:52.712Z,12.26
2023-04-12T19:58:23.671Z,12.23
2023-04-12T20:00:55.121Z,12.30
2023-04-12T20:03:28.729Z,12.34
2023-04-12T20:06:03.992Z,12.30
2023-04-12T20:08:35.717Z,12.26
2023-04-12T20:11:05.927Z,12.28
2023-04-12T20:13:36.585Z,12.35
2023-04-12T20:16:07.164Z,12.37
2023-04-12T20:18:40.009Z,12.40
2023-04-12T20:21:11.056Z,12.39
2023-04-12T20:23:41.269Z,12.39
2023-04-12T20:26:11.482Z,12.48
2023-04-12T20:28:41.760Z,12.52
2023-04-12T20:31:13.070Z,12.48
2023-04-12T20:33:46.078Z,12.55
2023-04-12T20:36:16.293Z,12.53
2023-04-12T20:38:47.064Z,12.53
2023-04-12T20:41:17.286Z,12.52
2023-04-12T20:43:48.522Z,12.56
2023-04-12T20:46:21.189Z,12.54
2023-04-12T20:48:56.634Z,12.53
2023-04-12T20:51:28.061Z,12.55
2023-04-12T20:53:58.627Z,12.39
2023-04-12T20:56:29.755Z,12.42
2023-04-12T20:59:00.861Z,12.42
2023-04-12T21:01:31.231Z,12.38
2023-04-12T21:04:06.468Z,12.20
2023-04-12T21:06:37.783Z,12.21
2023-04-12T21:09:10.242Z,12.22
2023-04-12T21:11:41.537Z,12.17
2023-04-12T21:14:12.345Z,12.16
2023-04-12T21:16:43.978Z,12.19
2023-04-12T21:19:18.399Z,12.13
2023-04-12T21:21:50.874Z,12.02
2023-04-12T21:24:21.885Z,12.07
2023-04-12T21:26:58.542Z,12.15
2023-04-12T21:29:31.982Z,12.08
2023-04-12T21:32:05.913Z,12.07
2023-04-12T21:34:39.422Z,11.90
2023-04-12T21:37:09.926Z,11.93
2023-04-12T21:39:40.641Z,12.02
2023-04-12T21:42:11.014Z,12.02
2023-04-12T21:44:41.463Z,11.86
2023-04-12T21:47:12.311Z,11.82
2023-04-12T21:49:45.230Z,11.90
2023-04-12T21:52:15.703Z,11.84
2023-04-12T21:54:46.007Z,11.95
2023-04-12T21:57:17.722Z,11.88
2023-04-12T21:59:47.949Z,11.89
2023-04-12T22:02:18.735Z,11.94
2023-04-12T22:04:52.053Z,11.94
2023-04-12T22:07:22.986Z,11.70
2023-04-12T22:09:53.763Z,11.59
2023-04-12T22:12:25.782Z,11.56
2023-04-12T22:14:57.795Z,11.63
2023-04-12T22:17:28.058Z,11.65
2023-04-12T22:20:01.228Z,11.58
2023-04-12T22:22:32.569Z,11.56
2023-04-12T22:25:02.816Z,11.61
2023-04-12T22:27:34.428Z,11.56
2023-04-12T22:30:04.595Z,11.61
2023-04-12T22:32:35.131Z,11.72
2023-04-12T22:35:09.305Z,11.63
2023-04-12T22:37:41.542Z,11.64
2023-04-12T22:40:14.498Z,11.65
2023-04-12T22:42:47.619Z,11.65
2023-04-12T22:45:18.339Z,11.65
2023-04-12T22:47:51.415Z,11.64
2023-04-12T22:50:25.134Z,11.65
2023-04-12T22:52:57.898Z,11.68
2023-04-12T22:55:29.014Z,11.74
2023-04-12T22:57:59.342Z,11.69
2023-04-12T23:00:30.683Z,11.53
2023-04-12T23:03:02.199Z,11.51
2023-04-12T23:05:36.016Z,11.43
2023-04-12T23:08:06.928Z,11.36
2023-04-12T23:10:37.883Z,11.31
2023-04-12T23:13:08.135Z,11.35
2023-04-12T23:15:40.715Z,11.38
2023-04-12T23:18:11.236Z,11.35
2023-04-12T23:20:44.977Z,11.27
2023-04-12T23:23:15.219Z,11.28
2023-04-12T23:25:45.623Z,11.32
2023-04-12T23:28:19.505Z,11.27
2023-04-12T23:30:51.228Z,11.33
2023-04-12T23:33:22.810Z,11.22
2023-04-12T23:35:56.277Z,11.42
2023-04-12T23:38:32.443Z,11.44
2023-04-12T23:41:04.236Z,11.45
2023-04-12T23:43:35.719Z,11.55
2023-04-12T23:46:06.883Z,11.45
2023-04-12T23:48:38.004Z,11.56
2023-04-12T23:51:11.933Z,11.70
2023-04-12T23:53:42.151Z,11.67
2023-04-12T23:56:13.567Z,11.56
2023-04-12T23:58:43.771Z,11.52
